メインページ
METAR-TAF:

METAR-TAF

空港 :

エルサルバドル, エルサルバドル

エルサルバドル国際空港

緯度: 13-26N, 経度: 089-03W, 海抜: 25m

現時点の気象観測

当レポートは18分前の21:50(UTC)に作成
の風 6kt、南/南東から南西の間で変化する
気温 31°C
湿度 46%
気圧 1010 hPa
視程10km以上
1,500メートル以下は雲なし、積乱雲なし

METAR: MSLP 192150Z 19006KT 150V220 CAVOK 31/18 Q1009 A2982 NOSIG

時間: 16:08 (22:08 UTC)

予報

当レポートは6時間43分前の15:25(UTC)に作成
予報は19日の 18時(UTC)から 20日の 18時(UTC)まで有効
の風 13kt
視程10km以上
高度4700ftの雲は散在している
20日の 0000時(UTC)から
変向風 3kt
高度6000ftの雲はほとんどない
20日の 0400時(UTC)から
東/北東の風 5kt
視程10km以上
1,500メートル以下は雲なし、積乱雲なし

TAF: MSLP 191525Z 1918/2018 19013KT 9999 SCT047 TX34/1918Z TN21/2012Z FM200000 VRB03KT FEW060 FM200400 07005KT CAVOK

4,000以上の空港の気象観測と天気予報(METAR報とTAF報)

利用可能な観測所は地図上に黄色い丸と赤い丸で示す。

丸の上にカーソルを重ねると観測所名を参照できる。

次にクリックすると気象観測と天気予報を参照できる。

マップの切り替え:黒色「×」印の緑ボタンをクリックして拡大、「-」印の緑ボタンをクリックして縮小、緑色の三角印をクリックして隣りの地図に切り替え


METAR-TAF: